Terminal Aerodrome Forecast
Issued by NWS Denver/Boulder, CO

Home | Current Version | Previous Version | Text Only | Print | Product List | Glossary On
Versions: 1 2 3 4 5 6 7 8 9 10 11 12 13 14 15 16 17 18 19 20 21 22 23 24 25 26 27 28 29 30 31 32 33 34 35 36 37 38 39 40 41 42 43 44 45 46 47 48 49 50
000
FTUS45 KBOU 311907 AAA
TAFDEN
TAF AMD
KDEN 311907Z 3119/0124 15010G18KT P6SM SCT090 SCT140
     FM312100 16014G20KT P6SM VCSH SCT090 BKN120
     FM010200 17012KT P6SM SCT060 BKN090
     FM010400 21011KT P6SM FEW070 SCT100
     FM011000 18008KT P6SM SCT150
     FM011400 VRB05KT P6SM FEW090 FEW200
     FM012200 06006KT P6SM SCT090 BKN150=

USA.gov is the U.S. government's official web portal to all federal, state and local government web resources and services.